createdAt,value
2022-11-28T00:45:39.730Z,95.89
2022-11-28T06:02:18.751Z,95.98
2022-11-28T06:04:46.343Z,95.72
2022-11-28T06:07:15.906Z,95.76
2022-11-28T06:09:45.733Z,95.97
2022-11-28T06:12:17.231Z,95.52
2022-11-28T06:56:53.931Z,95.47
2022-11-28T07:12:42.797Z,95.76
2022-11-28T07:23:44.039Z,95.13
2022-11-28T07:39:29.912Z,95.46
2022-11-28T07:50:28.703Z,96.65
2022-11-28T08:05:43.307Z,95.88
2022-11-28T08:08:10.685Z,95.90
2022-11-28T08:10:38.135Z,96.20
2022-11-28T08:35:25.188Z,95.44
2022-11-28T08:37:52.525Z,94.95
2022-11-28T08:40:19.850Z,95.48
2022-11-28T08:42:47.216Z,95.42
2022-11-28T08:45:16.284Z,94.65
2022-11-28T08:47:44.008Z,94.42
2022-11-28T08:54:29.733Z,94.11
2022-11-28T08:56:58.980Z,94.23
2022-11-28T08:59:30.227Z,93.85
2022-11-28T09:01:58.639Z,94.17
2022-11-28T09:04:26.210Z,93.97
2022-11-28T09:06:53.926Z,93.29
2022-11-28T09:09:21.922Z,93.52
2022-11-28T09:11:49.365Z,93.50
2022-11-28T09:14:17.058Z,92.78
2022-11-28T09:16:44.546Z,93.24
2022-11-28T09:19:12.177Z,92.90
2022-11-28T09:21:40.719Z,93.04
2022-11-28T09:24:08.907Z,92.92
2022-11-28T09:26:36.751Z,92.49
2022-11-28T09:29:04.249Z,91.91
2022-11-28T09:31:31.684Z,91.89
2022-11-28T09:33:59.232Z,92.05
2022-11-28T09:36:28.506Z,92.16
2022-11-28T09:38:55.997Z,92.14
2022-11-28T09:41:42.229Z,91.33
2022-11-28T09:44:22.314Z,91.53
2022-11-28T09:46:55.853Z,91.10
2022-11-28T09:49:45.717Z,91.32
2022-11-28T09:52:35.346Z,91.40
2022-11-28T09:55:35.806Z,90.68
2022-11-28T09:58:36.672Z,91.03
2022-11-28T10:01:26.795Z,90.96
2022-11-28T10:04:09.474Z,90.62
2022-11-28T10:06:45.439Z,90.49
2022-11-28T10:09:39.949Z,90.00
2022-11-28T10:12:34.290Z,90.05
2022-11-28T10:15:04.700Z,89.76
2022-11-28T10:17:54.751Z,89.47
2022-11-28T10:20:24.370Z,89.75
2022-11-28T10:23:03.080Z,89.35
2022-11-28T10:25:43.390Z,89.06
2022-11-28T10:28:16.056Z,88.95
2022-11-28T10:30:48.156Z,89.44
2022-11-28T10:33:27.462Z,89.23
2022-11-28T10:36:02.627Z,88.85
2022-11-28T10:38:34.182Z,88.97
2022-11-28T10:41:37.075Z,88.46
2022-11-28T10:44:23.500Z,88.54
2022-11-28T10:47:01.877Z,88.53
2022-11-28T10:49:47.752Z,88.28
2022-11-28T10:52:21.686Z,88.30
2022-11-28T10:55:20.134Z,87.60
2022-11-28T10:58:09.332Z,88.04
2022-11-28T11:00:37.523Z,87.51
2022-11-28T11:03:06.016Z,87.08
2022-11-28T11:05:35.579Z,86.79
2022-11-28T11:08:08.916Z,87.23
2022-11-28T11:10:49.301Z,86.88
2022-11-28T11:13:21.421Z,86.96
2022-11-28T11:15:51.908Z,86.86
2022-11-28T11:18:27.982Z,87.04
2022-11-28T11:21:18.378Z,86.47
2022-11-28T11:23:46.485Z,86.67
2022-11-28T11:26:24.020Z,86.30
2022-11-28T11:28:52.376Z,86.04
2022-11-28T11:31:28.419Z,86.40
2022-11-28T11:34:03.405Z,86.33
2022-11-28T11:36:36.332Z,85.94
2022-11-28T11:39:06.984Z,85.54
2022-11-28T11:41:34.799Z,85.36
2022-11-28T11:44:14.617Z,84.96
2022-11-28T11:46:51.419Z,85.10
2022-11-28T11:49:49.042Z,84.08
2022-11-28T11:52:26.768Z,83.66
2022-11-28T11:54:57.256Z,82.63
2022-11-28T11:57:37.445Z,82.55
2022-11-28T12:00:07.359Z,82.80
2022-11-28T12:02:45.286Z,83.00
2022-11-28T12:05:21.985Z,82.27
2022-11-28T12:08:00.263Z,82.03
2022-11-28T12:10:31.230Z,81.79
2022-11-28T12:12:58.608Z,81.21
2022-11-28T12:15:47.716Z,80.92
2022-11-28T12:18:53.844Z,81.09
2022-11-28T12:21:39.968Z,80.60
2022-11-28T12:24:12.438Z,81.18
2022-11-28T12:26:45.134Z,81.19
2022-11-28T12:29:12.599Z,81.34
2022-11-28T12:31:55.442Z,80.83
2022-11-28T12:34:41.394Z,80.86
2022-11-28T12:38:12.178Z,81.67
2022-11-28T12:41:01.425Z,81.28
2022-11-28T12:43:28.845Z,82.36
2022-11-28T12:46:05.289Z,80.82
2022-11-28T12:48:58.616Z,80.50
2022-11-28T12:51:34.267Z,81.15
2022-11-28T12:54:01.526Z,80.39
2022-11-28T12:56:54.645Z,80.44
2022-11-28T12:59:27.585Z,81.30
2022-11-28T13:02:18.004Z,81.39
2022-11-28T13:05:10.670Z,82.11
2022-11-28T13:08:15.291Z,82.70
2022-11-28T13:10:50.693Z,82.71
2022-11-28T13:13:41.316Z,83.41
2022-11-28T13:16:26.671Z,83.52
2022-11-28T13:19:00.531Z,83.43
2022-11-28T13:21:37.071Z,83.83
2022-11-28T13:24:26.056Z,84.20
2022-11-28T13:27:32.524Z,84.49
2022-11-28T13:30:20.367Z,84.04
2022-11-28T13:33:00.015Z,84.55
2022-11-28T13:35:28.654Z,84.15
2022-11-28T13:38:47.178Z,84.63
2022-11-28T13:41:43.867Z,84.43
2022-11-28T13:44:28.677Z,85.91
2022-11-28T13:46:56.797Z,86.35
2022-11-28T13:49:26.496Z,86.54
2022-11-28T13:52:18.849Z,87.10
2022-11-28T13:54:55.625Z,86.73
2022-11-28T13:57:39.284Z,86.83
2022-11-28T14:00:25.254Z,87.40
2022-11-28T14:02:55.052Z,87.23
2022-11-28T14:05:34.949Z,87.36
2022-11-28T14:08:04.201Z,87.04
2022-11-28T14:10:38.220Z,86.76
2022-11-28T14:13:28.147Z,87.19
2022-11-28T14:16:01.260Z,87.30
2022-11-28T14:19:10.339Z,87.72
2022-11-28T14:21:40.977Z,88.10
2022-11-28T14:24:27.141Z,87.23
2022-11-28T14:26:58.564Z,88.32
2022-11-28T14:29:35.310Z,88.08
2022-11-28T14:34:50.947Z,88.65
2022-11-28T14:37:21.490Z,88.69
2022-11-28T14:39:49.928Z,88.45
2022-11-28T14:42:44.157Z,88.20
2022-11-28T14:54:44.362Z,89.03
2022-11-28T15:09:49.986Z,88.81
2022-11-28T15:30:04.918Z,90.00
2022-11-28T15:46:26.880Z,89.93
2022-11-28T15:57:43.859Z,88.81
2022-11-28T16:00:15.841Z,89.25
2022-11-28T16:02:44.339Z,90.01
2022-11-28T16:05:16.150Z,89.99
2022-11-28T16:07:44.525Z,90.22
2022-11-28T16:10:25.132Z,90.23
2022-11-28T16:13:01.217Z,89.98
2022-11-28T16:37:34.928Z,89.80
2022-11-28T16:48:38.749Z,90.25
2022-11-28T16:51:11.652Z,90.48
2022-11-28T17:10:46.281Z,89.97
2022-11-28T17:17:39.006Z,90.00
2022-11-28T17:20:07.057Z,90.36
2022-11-28T17:22:59.978Z,90.34
2022-11-28T17:25:27.446Z,89.94
2022-11-28T17:27:54.934Z,89.87
2022-11-28T17:30:22.488Z,89.71
2022-11-28T17:37:40.885Z,89.90
2022-11-28T20:41:54.894Z,93.32
2022-11-28T23:04:06.507Z,93.67
2022-11-28T23:15:52.889Z,93.61
2022-11-28T23:22:51.635Z,94.59
2022-11-28T23:30:10.316Z,94.59
